sensor_id;sensor_type;location;lat;lon;timestamp;temperature;humidity
20102;DHT22;10210;52.284;9.892;2023-04-24T00:00:25;16.20;99.90
20102;DHT22;10210;52.284;9.892;2023-04-24T00:02:51;16.20;99.90
20102;DHT22;10210;52.284;9.892;2023-04-24T00:05:17;16.20;99.90
20102;DHT22;10210;52.284;9.892;2023-04-24T00:07:44;16.10;99.90
20102;DHT22;10210;52.284;9.892;2023-04-24T00:10:11;16.10;99.90
20102;DHT22;10210;52.284;9.892;2023-04-24T00:12:37;16.10;99.90
20102;DHT22;10210;52.284;9.892;2023-04-24T00:15:04;16.00;99.90
20102;DHT22;10210;52.284;9.892;2023-04-24T00:17:30;16.00;99.90
20102;DHT22;10210;52.284;9.892;2023-04-24T00:19:56;16.00;99.90
20102;DHT22;10210;52.284;9.892;2023-04-24T00:22:27;15.90;99.90
20102;DHT22;10210;52.284;9.892;2023-04-24T00:24:54;15.90;99.90
20102;DHT22;10210;52.284;9.892;2023-04-24T00:27:20;15.90;99.90
20102;DHT22;10210;52.284;9.892;2023-04-24T00:29:45;15.90;99.90
20102;DHT22;10210;52.284;9.892;2023-04-24T00:32:11;15.80;99.90
20102;DHT22;10210;52.284;9.892;2023-04-24T00:34:37;15.80;99.90
20102;DHT22;10210;52.284;9.892;2023-04-24T00:37:02;15.80;99.90
20102;DHT22;10210;52.284;9.892;2023-04-24T00:39:28;15.80;99.90
20102;DHT22;10210;52.284;9.892;2023-04-24T00:41:54;15.70;99.90
20102;DHT22;10210;52.284;9.892;2023-04-24T00:44:20;15.80;99.90
20102;DHT22;10210;52.284;9.892;2023-04-24T00:46:46;15.70;99.90
20102;DHT22;10210;52.284;9.892;2023-04-24T00:49:13;15.70;99.90
20102;DHT22;10210;52.284;9.892;2023-04-24T00:51:39;15.70;99.90
20102;DHT22;10210;52.284;9.892;2023-04-24T00:54:06;15.70;99.90
20102;DHT22;10210;52.284;9.892;2023-04-24T00:56:31;15.60;99.90
20102;DHT22;10210;52.284;9.892;2023-04-24T00:58:58;15.60;99.90
20102;DHT22;10210;52.284;9.892;2023-04-24T01:01:24;15.70;99.90
20102;DHT22;10210;52.284;9.892;2023-04-24T01:03:51;15.60;99.90
20102;DHT22;10210;52.284;9.892;2023-04-24T01:06:18;15.60;99.90
20102;DHT22;10210;52.284;9.892;2023-04-24T01:08:45;15.50;99.90
20102;DHT22;10210;52.284;9.892;2023-04-24T01:11:13;15.50;99.90
20102;DHT22;10210;52.284;9.892;2023-04-24T01:13:39;15.50;99.90
20102;DHT22;10210;52.284;9.892;2023-04-24T01:16:05;15.50;99.90
20102;DHT22;10210;52.284;9.892;2023-04-24T01:18:31;15.50;99.90
20102;DHT22;10210;52.284;9.892;2023-04-24T01:20:58;15.40;99.90
20102;DHT22;10210;52.284;9.892;2023-04-24T01:23:28;15.40;99.90
20102;DHT22;10210;52.284;9.892;2023-04-24T01:25:54;15.50;99.90
20102;DHT22;10210;52.284;9.892;2023-04-24T01:28:20;15.40;99.90
20102;DHT22;10210;52.284;9.892;2023-04-24T01:30:46;15.40;99.90
20102;DHT22;10210;52.284;9.892;2023-04-24T01:33:11;15.40;99.90
20102;DHT22;10210;52.284;9.892;2023-04-24T01:35:38;15.40;99.90
20102;DHT22;10210;52.284;9.892;2023-04-24T01:38:04;15.40;99.90
20102;DHT22;10210;52.284;9.892;2023-04-24T01:40:31;15.40;99.90
20102;DHT22;10210;52.284;9.892;2023-04-24T01:42:58;15.40;99.90
20102;DHT22;10210;52.284;9.892;2023-04-24T01:45:24;15.30;99.90
20102;DHT22;10210;52.284;9.892;2023-04-24T01:47:50;15.30;99.90
20102;DHT22;10210;52.284;9.892;2023-04-24T01:50:16;15.30;99.90
20102;DHT22;10210;52.284;9.892;2023-04-24T01:52:42;15.30;99.90
20102;DHT22;10210;52.284;9.892;2023-04-24T01:55:08;15.30;99.90
20102;DHT22;10210;52.284;9.892;2023-04-24T01:57:35;15.30;99.90
20102;DHT22;10210;52.284;9.892;2023-04-24T02:00:02;15.30;99.90
20102;DHT22;10210;52.284;9.892;2023-04-24T02:02:29;15.30;99.90
20102;DHT22;10210;52.284;9.892;2023-04-24T02:04:56;15.30;99.90
20102;DHT22;10210;52.284;9.892;2023-04-24T02:07:22;15.30;99.90
20102;DHT22;10210;52.284;9.892;2023-04-24T02:09:48;15.30;99.90
20102;DHT22;10210;52.284;9.892;2023-04-24T02:12:15;15.20;99.90
20102;DHT22;10210;52.284;9.892;2023-04-24T02:14:42;15.30;99.90
20102;DHT22;10210;52.284;9.892;2023-04-24T02:17:09;15.20;99.90
20102;DHT22;10210;52.284;9.892;2023-04-24T02:19:38;15.20;99.90
20102;DHT22;10210;52.284;9.892;2023-04-24T02:22:04;15.10;99.90
20102;DHT22;10210;52.284;9.892;2023-04-24T02:24:30;15.10;99.90
20102;DHT22;10210;52.284;9.892;2023-04-24T02:26:55;15.10;99.90
20102;DHT22;10210;52.284;9.892;2023-04-24T02:29:21;15.00;99.90
20102;DHT22;10210;52.284;9.892;2023-04-24T02:31:47;15.10;99.90
20102;DHT22;10210;52.284;9.892;2023-04-24T02:34:13;15.00;99.90
20102;DHT22;10210;52.284;9.892;2023-04-24T02:36:38;15.00;99.90
20102;DHT22;10210;52.284;9.892;2023-04-24T02:39:04;15.00;99.90
20102;DHT22;10210;52.284;9.892;2023-04-24T02:41:30;15.00;99.90
20102;DHT22;10210;52.284;9.892;2023-04-24T02:43:58;15.00;99.90
20102;DHT22;10210;52.284;9.892;2023-04-24T02:46:24;14.90;99.90
20102;DHT22;10210;52.284;9.892;2023-04-24T02:48:50;14.90;99.90
20102;DHT22;10210;52.284;9.892;2023-04-24T02:51:16;14.90;99.90
20102;DHT22;10210;52.284;9.892;2023-04-24T02:53:41;14.90;99.90
20102;DHT22;10210;52.284;9.892;2023-04-24T02:56:07;14.90;99.90
20102;DHT22;10210;52.284;9.892;2023-04-24T02:58:33;14.80;99.90
20102;DHT22;10210;52.284;9.892;2023-04-24T03:00:59;14.80;99.90
20102;DHT22;10210;52.284;9.892;2023-04-24T03:03:26;14.80;99.90
20102;DHT22;10210;52.284;9.892;2023-04-24T03:05:51;14.80;99.90
20102;DHT22;10210;52.284;9.892;2023-04-24T03:08:17;14.70;99.90
20102;DHT22;10210;52.284;9.892;2023-04-24T03:10:43;14.70;99.90
20102;DHT22;10210;52.284;9.892;2023-04-24T03:13:09;14.60;99.90
20102;DHT22;10210;52.284;9.892;2023-04-24T03:15:34;14.60;99.90
20102;DHT22;10210;52.284;9.892;2023-04-24T03:18:00;14.60;99.90
20102;DHT22;10210;52.284;9.892;2023-04-24T03:20:26;14.60;99.90
20102;DHT22;10210;52.284;9.892;2023-04-24T03:22:52;14.50;99.90
20102;DHT22;10210;52.284;9.892;2023-04-24T03:25:18;14.50;99.90
20102;DHT22;10210;52.284;9.892;2023-04-24T03:27:43;14.50;99.90
20102;DHT22;10210;52.284;9.892;2023-04-24T03:30:10;14.40;99.90
20102;DHT22;10210;52.284;9.892;2023-04-24T03:32:36;14.40;99.90
20102;DHT22;10210;52.284;9.892;2023-04-24T03:35:01;14.40;99.90
20102;DHT22;10210;52.284;9.892;2023-04-24T03:37:27;14.40;99.90
20102;DHT22;10210;52.284;9.892;2023-04-24T03:39:53;14.40;99.90
20102;DHT22;10210;52.284;9.892;2023-04-24T03:42:18;14.30;99.90
20102;DHT22;10210;52.284;9.892;2023-04-24T03:44:44;14.30;99.90
20102;DHT22;10210;52.284;9.892;2023-04-24T03:47:09;14.30;99.90
20102;DHT22;10210;52.284;9.892;2023-04-24T03:49:35;14.20;99.90
20102;DHT22;10210;52.284;9.892;2023-04-24T03:52:01;14.20;99.90
20102;DHT22;10210;52.284;9.892;2023-04-24T03:54:27;14.20;99.90
20102;DHT22;10210;52.284;9.892;2023-04-24T03:56:52;14.10;99.90
20102;DHT22;10210;52.284;9.892;2023-04-24T03:59:18;14.10;99.90
20102;DHT22;10210;52.284;9.892;2023-04-24T04:01:44;14.10;99.90
20102;DHT22;10210;52.284;9.892;2023-04-24T04:04:10;14.10;99.90
20102;DHT22;10210;52.284;9.892;2023-04-24T04:06:36;14.10;99.90
20102;DHT22;10210;52.284;9.892;2023-04-24T04:09:02;14.10;99.90
20102;DHT22;10210;52.284;9.892;2023-04-24T04:11:28;14.00;99.90
20102;DHT22;10210;52.284;9.892;2023-04-24T04:13:55;14.00;99.90
20102;DHT22;10210;52.284;9.892;2023-04-24T04:16:22;14.00;99.90
20102;DHT22;10210;52.284;9.892;2023-04-24T04:18:48;14.00;99.90
20102;DHT22;10210;52.284;9.892;2023-04-24T04:21:14;14.00;99.90
20102;DHT22;10210;52.284;9.892;2023-04-24T04:23:39;14.00;99.90
20102;DHT22;10210;52.284;9.892;2023-04-24T04:26:05;14.00;99.90
20102;DHT22;10210;52.284;9.892;2023-04-24T04:28:31;13.90;99.90
20102;DHT22;10210;52.284;9.892;2023-04-24T04:30:57;13.90;99.90
20102;DHT22;10210;52.284;9.892;2023-04-24T04:33:24;13.90;99.90
20102;DHT22;10210;52.284;9.892;2023-04-24T04:35:51;14.00;99.90
20102;DHT22;10210;52.284;9.892;2023-04-24T04:38:21;14.00;99.90
20102;DHT22;10210;52.284;9.892;2023-04-24T04:40:46;13.90;99.90
20102;DHT22;10210;52.284;9.892;2023-04-24T04:43:12;13.90;99.90
20102;DHT22;10210;52.284;9.892;2023-04-24T04:45:40;13.90;99.90
20102;DHT22;10210;52.284;9.892;2023-04-24T04:48:08;13.90;99.90
20102;DHT22;10210;52.284;9.892;2023-04-24T04:50:37;13.90;99.90
20102;DHT22;10210;52.284;9.892;2023-04-24T04:53:03;13.90;99.90
20102;DHT22;10210;52.284;9.892;2023-04-24T04:55:28;13.80;99.90
20102;DHT22;10210;52.284;9.892;2023-04-24T04:57:54;13.80;99.90
20102;DHT22;10210;52.284;9.892;2023-04-24T05:00:21;13.70;99.90
20102;DHT22;10210;52.284;9.892;2023-04-24T05:02:47;13.70;99.90
20102;DHT22;10210;52.284;9.892;2023-04-24T05:05:13;13.70;99.90
20102;DHT22;10210;52.284;9.892;2023-04-24T05:07:41;13.70;99.90
20102;DHT22;10210;52.284;9.892;2023-04-24T05:10:07;13.70;99.90
20102;DHT22;10210;52.284;9.892;2023-04-24T05:12:33;13.70;99.90
20102;DHT22;10210;52.284;9.892;2023-04-24T05:14:58;13.70;99.90
20102;DHT22;10210;52.284;9.892;2023-04-24T05:17:24;13.80;99.90
20102;DHT22;10210;52.284;9.892;2023-04-24T05:19:51;13.80;99.90
20102;DHT22;10210;52.284;9.892;2023-04-24T05:22:16;13.80;99.90
20102;DHT22;10210;52.284;9.892;2023-04-24T05:24:44;13.80;99.90
20102;DHT22;10210;52.284;9.892;2023-04-24T05:27:10;13.80;99.90
20102;DHT22;10210;52.284;9.892;2023-04-24T05:29:36;13.90;99.90
20102;DHT22;10210;52.284;9.892;2023-04-24T05:32:01;13.90;99.90
20102;DHT22;10210;52.284;9.892;2023-04-24T05:34:28;14.00;99.90
20102;DHT22;10210;52.284;9.892;2023-04-24T05:36:57;14.00;99.90
20102;DHT22;10210;52.284;9.892;2023-04-24T05:39:23;14.00;99.90
20102;DHT22;10210;52.284;9.892;2023-04-24T05:41:50;14.00;99.90
20102;DHT22;10210;52.284;9.892;2023-04-24T05:44:16;14.10;99.90
20102;DHT22;10210;52.284;9.892;2023-04-24T05:46:42;14.10;99.90
20102;DHT22;10210;52.284;9.892;2023-04-24T05:49:07;14.20;99.90
20102;DHT22;10210;52.284;9.892;2023-04-24T05:51:33;14.20;99.90
20102;DHT22;10210;52.284;9.892;2023-04-24T05:53:59;14.30;99.90
20102;DHT22;10210;52.284;9.892;2023-04-24T05:56:24;14.30;99.90
20102;DHT22;10210;52.284;9.892;2023-04-24T05:58:50;14.40;99.90
20102;DHT22;10210;52.284;9.892;2023-04-24T06:01:16;14.40;99.90
20102;DHT22;10210;52.284;9.892;2023-04-24T06:03:42;14.40;99.90
20102;DHT22;10210;52.284;9.892;2023-04-24T06:06:08;14.50;99.90
20102;DHT22;10210;52.284;9.892;2023-04-24T06:08:34;14.50;99.90
20102;DHT22;10210;52.284;9.892;2023-04-24T06:11:00;14.60;99.90
20102;DHT22;10210;52.284;9.892;2023-04-24T06:13:26;14.60;99.90
20102;DHT22;10210;52.284;9.892;2023-04-24T06:15:52;14.60;99.90
20102;DHT22;10210;52.284;9.892;2023-04-24T06:18:19;14.70;99.90
20102;DHT22;10210;52.284;9.892;2023-04-24T06:20:50;14.70;99.90
20102;DHT22;10210;52.284;9.892;2023-04-24T06:23:17;14.70;99.90
20102;DHT22;10210;52.284;9.892;2023-04-24T06:25:42;14.70;99.90
20102;DHT22;10210;52.284;9.892;2023-04-24T06:28:10;14.70;99.90
20102;DHT22;10210;52.284;9.892;2023-04-24T06:30:36;14.70;99.90
20102;DHT22;10210;52.284;9.892;2023-04-24T06:33:02;14.60;99.90
20102;DHT22;10210;52.284;9.892;2023-04-24T06:35:28;14.60;99.90
20102;DHT22;10210;52.284;9.892;2023-04-24T06:37:54;14.60;99.90
20102;DHT22;10210;52.284;9.892;2023-04-24T06:40:21;14.50;99.90
20102;DHT22;10210;52.284;9.892;2023-04-24T06:42:47;14.50;99.90
20102;DHT22;10210;52.284;9.892;2023-04-24T06:45:13;14.50;99.90
20102;DHT22;10210;52.284;9.892;2023-04-24T06:47:39;14.50;99.90
20102;DHT22;10210;52.284;9.892;2023-04-24T06:50:05;14.50;99.90
20102;DHT22;10210;52.284;9.892;2023-04-24T06:52:32;14.40;99.90
20102;DHT22;10210;52.284;9.892;2023-04-24T06:55:04;14.50;99.90
20102;DHT22;10210;52.284;9.892;2023-04-24T06:57:31;14.50;99.90
20102;DHT22;10210;52.284;9.892;2023-04-24T06:59:56;14.50;99.90
20102;DHT22;10210;52.284;9.892;2023-04-24T07:02:23;14.50;99.90
20102;DHT22;10210;52.284;9.892;2023-04-24T07:04:48;14.50;99.90
20102;DHT22;10210;52.284;9.892;2023-04-24T07:07:14;14.50;99.90
20102;DHT22;10210;52.284;9.892;2023-04-24T07:09:40;14.40;99.90
20102;DHT22;10210;52.284;9.892;2023-04-24T07:12:08;14.50;99.90
20102;DHT22;10210;52.284;9.892;2023-04-24T07:14:36;14.50;99.90
20102;DHT22;10210;52.284;9.892;2023-04-24T07:17:04;14.50;99.90
20102;DHT22;10210;52.284;9.892;2023-04-24T07:19:32;14.50;99.90
20102;DHT22;10210;52.284;9.892;2023-04-24T07:21:58;14.50;99.90
20102;DHT22;10210;52.284;9.892;2023-04-24T07:24:25;14.50;99.90
20102;DHT22;10210;52.284;9.892;2023-04-24T07:26:51;14.50;99.90
20102;DHT22;10210;52.284;9.892;2023-04-24T07:29:18;14.50;99.90
20102;DHT22;10210;52.284;9.892;2023-04-24T07:31:45;14.40;99.90
20102;DHT22;10210;52.284;9.892;2023-04-24T07:34:10;14.40;99.90
20102;DHT22;10210;52.284;9.892;2023-04-24T07:36:36;14.50;99.90
20102;DHT22;10210;52.284;9.892;2023-04-24T07:39:04;14.60;99.90
20102;DHT22;10210;52.284;9.892;2023-04-24T07:41:30;14.80;99.90
20102;DHT22;10210;52.284;9.892;2023-04-24T07:43:56;15.10;99.90
20102;DHT22;10210;52.284;9.892;2023-04-24T07:46:21;15.40;99.90
20102;DHT22;10210;52.284;9.892;2023-04-24T07:48:48;15.70;99.90
20102;DHT22;10210;52.284;9.892;2023-04-24T07:51:15;16.00;99.90
20102;DHT22;10210;52.284;9.892;2023-04-24T07:53:41;16.40;99.90
20102;DHT22;10210;52.284;9.892;2023-04-24T07:56:07;16.60;99.90
20102;DHT22;10210;52.284;9.892;2023-04-24T07:58:34;16.80;99.90
20102;DHT22;10210;52.284;9.892;2023-04-24T08:01:01;17.00;99.90
20102;DHT22;10210;52.284;9.892;2023-04-24T08:03:27;17.20;99.90
20102;DHT22;10210;52.284;9.892;2023-04-24T08:05:53;17.40;99.90
20102;DHT22;10210;52.284;9.892;2023-04-24T08:08:21;17.70;99.90
20102;DHT22;10210;52.284;9.892;2023-04-24T08:10:48;18.10;99.90
20102;DHT22;10210;52.284;9.892;2023-04-24T08:13:14;18.40;99.90
20102;DHT22;10210;52.284;9.892;2023-04-24T08:15:40;18.70;99.90
20102;DHT22;10210;52.284;9.892;2023-04-24T08:18:05;18.80;99.90
20102;DHT22;10210;52.284;9.892;2023-04-24T08:20:31;18.90;99.90
20102;DHT22;10210;52.284;9.892;2023-04-24T08:22:57;19.00;99.90
20102;DHT22;10210;52.284;9.892;2023-04-24T08:25:22;19.20;99.90
20102;DHT22;10210;52.284;9.892;2023-04-24T08:27:50;19.20;99.90
20102;DHT22;10210;52.284;9.892;2023-04-24T08:30:16;19.30;99.90
20102;DHT22;10210;52.284;9.892;2023-04-24T08:32:42;19.30;99.90
20102;DHT22;10210;52.284;9.892;2023-04-24T08:35:08;19.30;99.90
20102;DHT22;10210;52.284;9.892;2023-04-24T08:37:35;19.20;99.90
20102;DHT22;10210;52.284;9.892;2023-04-24T08:40:03;19.30;99.90
20102;DHT22;10210;52.284;9.892;2023-04-24T08:42:37;19.30;99.90
20102;DHT22;10210;52.284;9.892;2023-04-24T08:45:03;19.50;99.90
20102;DHT22;10210;52.284;9.892;2023-04-24T08:47:30;19.50;99.90
20102;DHT22;10210;52.284;9.892;2023-04-24T08:49:57;19.60;99.90
20102;DHT22;10210;52.284;9.892;2023-04-24T08:52:25;19.70;99.90
20102;DHT22;10210;52.284;9.892;2023-04-24T08:54:52;19.60;99.90
20102;DHT22;10210;52.284;9.892;2023-04-24T08:57:20;19.70;99.90
20102;DHT22;10210;52.284;9.892;2023-04-24T08:59:46;19.70;99.90
20102;DHT22;10210;52.284;9.892;2023-04-24T09:02:13;19.70;99.90
20102;DHT22;10210;52.284;9.892;2023-04-24T09:04:40;19.60;99.90
20102;DHT22;10210;52.284;9.892;2023-04-24T09:07:09;19.50;99.90
20102;DHT22;10210;52.284;9.892;2023-04-24T09:09:37;19.30;99.90
20102;DHT22;10210;52.284;9.892;2023-04-24T09:12:04;19.10;99.90
20102;DHT22;10210;52.284;9.892;2023-04-24T09:14:30;18.80;99.90
20102;DHT22;10210;52.284;9.892;2023-04-24T09:16:57;18.50;99.90
20102;DHT22;10210;52.284;9.892;2023-04-24T09:19:23;18.20;99.90
20102;DHT22;10210;52.284;9.892;2023-04-24T09:21:48;18.00;99.90
20102;DHT22;10210;52.284;9.892;2023-04-24T09:24:19;17.80;99.90
20102;DHT22;10210;52.284;9.892;2023-04-24T09:26:48;17.80;99.90
20102;DHT22;10210;52.284;9.892;2023-04-24T09:29:21;17.80;99.90
20102;DHT22;10210;52.284;9.892;2023-04-24T09:31:46;17.80;99.90
20102;DHT22;10210;52.284;9.892;2023-04-24T09:34:12;17.80;99.90
20102;DHT22;10210;52.284;9.892;2023-04-24T09:36:40;17.70;99.90
20102;DHT22;10210;52.284;9.892;2023-04-24T09:39:15;17.70;99.90
20102;DHT22;10210;52.284;9.892;2023-04-24T09:41:55;17.60;99.90
20102;DHT22;10210;52.284;9.892;2023-04-24T09:44:27;17.50;99.90
20102;DHT22;10210;52.284;9.892;2023-04-24T09:46:55;17.40;99.90
20102;DHT22;10210;52.284;9.892;2023-04-24T09:49:24;17.40;99.90
20102;DHT22;10210;52.284;9.892;2023-04-24T09:51:52;17.60;99.90
20102;DHT22;10210;52.284;9.892;2023-04-24T09:54:27;17.70;99.90
20102;DHT22;10210;52.284;9.892;2023-04-24T09:56:54;17.80;99.90
20102;DHT22;10210;52.284;9.892;2023-04-24T09:59:21;17.90;99.90
20102;DHT22;10210;52.284;9.892;2023-04-24T10:01:48;17.90;99.90
20102;DHT22;10210;52.284;9.892;2023-04-24T10:04:31;17.80;99.90
20102;DHT22;10210;52.284;9.892;2023-04-24T10:06:57;17.70;99.90
20102;DHT22;10210;52.284;9.892;2023-04-24T10:09:24;17.60;99.90
20102;DHT22;10210;52.284;9.892;2023-04-24T10:11:53;17.50;99.90
20102;DHT22;10210;52.284;9.892;2023-04-24T10:14:22;17.40;99.90
20102;DHT22;10210;52.284;9.892;2023-04-24T10:16:50;17.40;99.90
20102;DHT22;10210;52.284;9.892;2023-04-24T10:19:19;17.30;99.90
20102;DHT22;10210;52.284;9.892;2023-04-24T10:21:45;17.10;99.90
20102;DHT22;10210;52.284;9.892;2023-04-24T10:24:18;17.10;99.90
20102;DHT22;10210;52.284;9.892;2023-04-24T10:26:47;17.00;99.90
20102;DHT22;10210;52.284;9.892;2023-04-24T10:29:14;16.90;99.90
20102;DHT22;10210;52.284;9.892;2023-04-24T10:31:42;16.80;99.90
20102;DHT22;10210;52.284;9.892;2023-04-24T10:34:11;16.70;99.90
20102;DHT22;10210;52.284;9.892;2023-04-24T10:36:41;16.70;99.90
20102;DHT22;10210;52.284;9.892;2023-04-24T10:39:13;16.60;99.90
20102;DHT22;10210;52.284;9.892;2023-04-24T10:41:40;16.60;99.90
20102;DHT22;10210;52.284;9.892;2023-04-24T10:44:11;16.60;99.90
20102;DHT22;10210;52.284;9.892;2023-04-24T10:46:42;16.50;99.90
20102;DHT22;10210;52.284;9.892;2023-04-24T10:49:10;16.50;99.90
20102;DHT22;10210;52.284;9.892;2023-04-24T10:51:52;16.50;99.90
20102;DHT22;10210;52.284;9.892;2023-04-24T10:54:35;16.50;99.90
20102;DHT22;10210;52.284;9.892;2023-04-24T11:00:10;16.60;99.90
20102;DHT22;10210;52.284;9.892;2023-04-24T11:02:41;16.60;99.90
20102;DHT22;10210;52.284;9.892;2023-04-24T11:05:15;16.60;99.90
20102;DHT22;10210;52.284;9.892;2023-04-24T11:08:11;16.60;99.90
20102;DHT22;10210;52.284;9.892;2023-04-24T11:11:03;16.60;99.90
20102;DHT22;10210;52.284;9.892;2023-04-24T11:16:28;16.50;99.90
20102;DHT22;10210;52.284;9.892;2023-04-24T11:21:59;16.30;99.90
20102;DHT22;10210;52.284;9.892;2023-04-24T11:30:00;16.10;99.90
20102;DHT22;10210;52.284;9.892;2023-04-24T11:33:10;16.20;99.90
20102;DHT22;10210;52.284;9.892;2023-04-24T11:35:18;16.20;99.90
20102;DHT22;10210;52.284;9.892;2023-04-24T11:37:49;16.30;99.90
20102;DHT22;10210;52.284;9.892;2023-04-24T11:40:17;16.40;99.90
20102;DHT22;10210;52.284;9.892;2023-04-24T11:42:47;16.40;99.90
20102;DHT22;10210;52.284;9.892;2023-04-24T11:45:24;16.40;99.90
20102;DHT22;10210;52.284;9.892;2023-04-24T11:47:52;16.50;99.90
20102;DHT22;10210;52.284;9.892;2023-04-24T11:50:21;16.40;99.90
20102;DHT22;10210;52.284;9.892;2023-04-24T11:52:48;16.40;99.90
20102;DHT22;10210;52.284;9.892;2023-04-24T11:57:45;16.40;99.90
20102;DHT22;10210;52.284;9.892;2023-04-24T12:00:17;16.40;99.90
20102;DHT22;10210;52.284;9.892;2023-04-24T12:02:46;16.40;99.90
20102;DHT22;10210;52.284;9.892;2023-04-24T12:05:27;16.40;99.90
20102;DHT22;10210;52.284;9.892;2023-04-24T12:07:56;16.40;99.90
20102;DHT22;10210;52.284;9.892;2023-04-24T12:10:25;16.50;99.90
20102;DHT22;10210;52.284;9.892;2023-04-24T12:12:53;16.50;99.90
20102;DHT22;10210;52.284;9.892;2023-04-24T12:15:21;16.60;99.90
20102;DHT22;10210;52.284;9.892;2023-04-24T12:17:49;16.50;99.90
20102;DHT22;10210;52.284;9.892;2023-04-24T12:20:16;16.60;99.90
20102;DHT22;10210;52.284;9.892;2023-04-24T12:22:51;16.60;99.90
20102;DHT22;10210;52.284;9.892;2023-04-24T12:25:20;16.50;99.90
20102;DHT22;10210;52.284;9.892;2023-04-24T12:27:54;16.50;99.90
20102;DHT22;10210;52.284;9.892;2023-04-24T12:30:21;16.50;99.90
20102;DHT22;10210;52.284;9.892;2023-04-24T12:32:53;16.40;99.90
20102;DHT22;10210;52.284;9.892;2023-04-24T12:35:22;16.30;99.90
20102;DHT22;10210;52.284;9.892;2023-04-24T12:37:49;16.20;99.90
20102;DHT22;10210;52.284;9.892;2023-04-24T12:40:16;16.10;99.90
20102;DHT22;10210;52.284;9.892;2023-04-24T12:45:14;15.90;99.90
20102;DHT22;10210;52.284;9.892;2023-04-24T12:47:42;15.80;99.90
20102;DHT22;10210;52.284;9.892;2023-04-24T12:50:14;15.80;99.90
20102;DHT22;10210;52.284;9.892;2023-04-24T12:52:41;15.80;99.90
20102;DHT22;10210;52.284;9.892;2023-04-24T12:55:07;15.70;99.90
20102;DHT22;10210;52.284;9.892;2023-04-24T12:57:35;15.70;99.90
20102;DHT22;10210;52.284;9.892;2023-04-24T13:00:03;15.70;99.90
20102;DHT22;10210;52.284;9.892;2023-04-24T13:02:30;15.70;99.90
20102;DHT22;10210;52.284;9.892;2023-04-24T13:04:57;15.80;99.90
20102;DHT22;10210;52.284;9.892;2023-04-24T13:07:23;15.80;99.90
20102;DHT22;10210;52.284;9.892;2023-04-24T13:09:50;16.00;99.90
20102;DHT22;10210;52.284;9.892;2023-04-24T13:12:17;16.00;99.90
20102;DHT22;10210;52.284;9.892;2023-04-24T13:14:43;16.00;99.90
20102;DHT22;10210;52.284;9.892;2023-04-24T13:17:09;16.00;99.90
20102;DHT22;10210;52.284;9.892;2023-04-24T13:19:36;16.00;99.90
20102;DHT22;10210;52.284;9.892;2023-04-24T13:22:03;16.00;99.90
20102;DHT22;10210;52.284;9.892;2023-04-24T13:24:29;15.90;99.90
20102;DHT22;10210;52.284;9.892;2023-04-24T13:26:56;15.80;99.90
20102;DHT22;10210;52.284;9.892;2023-04-24T13:29:22;15.80;99.90
20102;DHT22;10210;52.284;9.892;2023-04-24T13:31:50;15.70;99.90
20102;DHT22;10210;52.284;9.892;2023-04-24T13:34:17;15.60;99.90
20102;DHT22;10210;52.284;9.892;2023-04-24T13:36:43;15.50;99.90
20102;DHT22;10210;52.284;9.892;2023-04-24T13:39:10;15.50;99.90
20102;DHT22;10210;52.284;9.892;2023-04-24T13:41:36;15.40;99.90
20102;DHT22;10210;52.284;9.892;2023-04-24T13:44:03;15.30;99.90
20102;DHT22;10210;52.284;9.892;2023-04-24T13:46:30;15.20;99.90
20102;DHT22;10210;52.284;9.892;2023-04-24T13:48:56;15.20;99.90
20102;DHT22;10210;52.284;9.892;2023-04-24T13:51:25;15.20;99.90
20102;DHT22;10210;52.284;9.892;2023-04-24T13:53:54;15.30;99.90
20102;DHT22;10210;52.284;9.892;2023-04-24T13:56:21;15.30;99.90
20102;DHT22;10210;52.284;9.892;2023-04-24T13:58:48;15.30;99.90
20102;DHT22;10210;52.284;9.892;2023-04-24T14:01:14;15.30;99.90
20102;DHT22;10210;52.284;9.892;2023-04-24T14:03:41;15.20;99.90
20102;DHT22;10210;52.284;9.892;2023-04-24T14:06:08;15.10;99.90
20102;DHT22;10210;52.284;9.892;2023-04-24T14:08:34;14.90;99.90
20102;DHT22;10210;52.284;9.892;2023-04-24T14:10:59;14.70;99.90
20102;DHT22;10210;52.284;9.892;2023-04-24T14:13:25;14.60;99.90
20102;DHT22;10210;52.284;9.892;2023-04-24T14:15:51;14.50;99.90
20102;DHT22;10210;52.284;9.892;2023-04-24T14:18:18;14.40;99.90
20102;DHT22;10210;52.284;9.892;2023-04-24T14:20:44;14.30;99.90
20102;DHT22;10210;52.284;9.892;2023-04-24T14:23:10;14.20;99.90
20102;DHT22;10210;52.284;9.892;2023-04-24T14:25:36;14.10;99.90
20102;DHT22;10210;52.284;9.892;2023-04-24T14:28:02;14.10;99.90
20102;DHT22;10210;52.284;9.892;2023-04-24T14:30:27;14.00;99.90
20102;DHT22;10210;52.284;9.892;2023-04-24T14:32:53;14.00;99.90
20102;DHT22;10210;52.284;9.892;2023-04-24T14:35:18;13.90;99.90
20102;DHT22;10210;52.284;9.892;2023-04-24T14:37:44;13.90;99.90
20102;DHT22;10210;52.284;9.892;2023-04-24T14:40:10;13.90;99.90
20102;DHT22;10210;52.284;9.892;2023-04-24T14:42:36;13.90;99.90
20102;DHT22;10210;52.284;9.892;2023-04-24T14:45:02;13.90;99.90
20102;DHT22;10210;52.284;9.892;2023-04-24T14:47:28;13.80;99.90
20102;DHT22;10210;52.284;9.892;2023-04-24T14:49:54;13.80;99.90
20102;DHT22;10210;52.284;9.892;2023-04-24T14:52:21;13.80;99.90
20102;DHT22;10210;52.284;9.892;2023-04-24T14:54:46;13.70;99.90
20102;DHT22;10210;52.284;9.892;2023-04-24T14:57:13;13.70;99.90
20102;DHT22;10210;52.284;9.892;2023-04-24T14:59:40;13.60;99.90
20102;DHT22;10210;52.284;9.892;2023-04-24T15:02:06;13.50;99.90
20102;DHT22;10210;52.284;9.892;2023-04-24T15:04:32;13.50;99.90
20102;DHT22;10210;52.284;9.892;2023-04-24T15:06:57;13.50;99.90
20102;DHT22;10210;52.284;9.892;2023-04-24T15:09:24;13.40;99.90
20102;DHT22;10210;52.284;9.892;2023-04-24T15:11:51;13.40;99.90
20102;DHT22;10210;52.284;9.892;2023-04-24T15:14:17;13.40;99.90
20102;DHT22;10210;52.284;9.892;2023-04-24T15:16:43;13.40;99.90
20102;DHT22;10210;52.284;9.892;2023-04-24T15:19:10;13.40;99.90
20102;DHT22;10210;52.284;9.892;2023-04-24T15:21:36;13.40;99.90
20102;DHT22;10210;52.284;9.892;2023-04-24T15:24:06;13.40;99.90
20102;DHT22;10210;52.284;9.892;2023-04-24T15:26:31;13.40;99.90
20102;DHT22;10210;52.284;9.892;2023-04-24T15:28:57;13.50;99.90
20102;DHT22;10210;52.284;9.892;2023-04-24T15:31:23;13.50;99.90
20102;DHT22;10210;52.284;9.892;2023-04-24T15:33:49;13.50;99.90
20102;DHT22;10210;52.284;9.892;2023-04-24T15:36:16;13.50;99.90
20102;DHT22;10210;52.284;9.892;2023-04-24T15:38:43;13.50;99.90
20102;DHT22;10210;52.284;9.892;2023-04-24T15:41:09;13.60;99.90
20102;DHT22;10210;52.284;9.892;2023-04-24T15:43:35;13.60;99.90
20102;DHT22;10210;52.284;9.892;2023-04-24T15:46:01;13.60;99.90
20102;DHT22;10210;52.284;9.892;2023-04-24T15:48:29;13.60;99.90